createdAt,value
2018-04-07T00:01:58.844Z,57.98
2018-04-07T00:04:27.128Z,56.71
2018-04-07T00:06:55.404Z,57.27
2018-04-07T00:09:23.904Z,57.11
2018-04-07T00:11:52.768Z,56.63
2018-04-07T00:14:21.169Z,56.02
2018-04-07T00:16:49.440Z,56.01
2018-04-07T00:19:17.760Z,56.02
2018-04-07T00:21:46.555Z,56.70
2018-04-07T00:24:14.827Z,56.45
2018-04-07T00:26:44.309Z,56.76
2018-04-07T00:29:12.607Z,57.21
2018-04-07T00:31:40.949Z,56.78
2018-04-07T00:34:09.244Z,57.18
2018-04-07T00:36:38.460Z,57.62
2018-04-07T00:39:07.505Z,57.59
2018-04-07T00:41:35.812Z,57.97
2018-04-07T00:44:04.100Z,57.22
2018-04-07T00:46:32.586Z,57.22
2018-04-07T00:49:01.347Z,56.68
2018-04-07T00:51:29.626Z,56.19
2018-04-07T00:53:57.944Z,56.11
2018-04-07T00:56:27.023Z,57.39
2018-04-07T00:58:55.284Z,57.29
2018-04-07T01:01:23.613Z,56.39
2018-04-07T01:03:52.645Z,57.23
2018-04-07T01:06:20.936Z,57.12
2018-04-07T01:08:49.226Z,56.72
2018-04-07T01:11:17.582Z,56.84
2018-04-07T01:13:45.961Z,56.97
2018-04-07T01:16:14.677Z,57.30
2018-04-07T01:18:43.192Z,57.40
2018-04-07T01:21:12.300Z,56.90
2018-04-07T01:23:41.358Z,56.35
2018-04-07T01:26:09.656Z,56.07
2018-04-07T01:28:39.413Z,56.28
2018-04-07T01:31:08.619Z,55.83
2018-04-07T01:33:36.881Z,55.80
2018-04-07T01:36:05.284Z,56.22
2018-04-07T01:38:33.552Z,56.02
2018-04-07T01:41:02.671Z,55.80
2018-04-07T01:43:30.970Z,56.25
2018-04-07T01:45:59.248Z,55.84
2018-04-07T01:48:27.598Z,55.71
2018-04-07T01:50:56.072Z,55.84
2018-04-07T01:53:24.339Z,55.54
2018-04-07T01:55:52.607Z,55.64
2018-04-07T01:58:21.008Z,55.46
2018-04-07T02:00:49.276Z,56.38
2018-04-07T02:03:17.627Z,56.27
2018-04-07T02:05:46.704Z,56.20
2018-04-07T02:08:14.966Z,55.78
2018-04-07T02:10:44.384Z,56.05
2018-04-07T02:13:13.232Z,55.54
2018-04-07T02:15:41.712Z,55.01
2018-04-07T02:18:10.032Z,55.45
2018-04-07T02:20:39.108Z,56.31
2018-04-07T02:23:07.762Z,56.14
2018-04-07T02:25:36.029Z,55.88
2018-04-07T02:28:04.828Z,56.26
2018-04-07T02:30:33.547Z,56.40
2018-04-07T02:33:01.896Z,56.46
2018-04-07T02:35:30.111Z,56.37
2018-04-07T02:37:59.057Z,55.92
2018-04-07T02:40:27.471Z,55.72
2018-04-07T02:42:55.741Z,55.85
2018-04-07T02:45:24.006Z,56.66
2018-04-07T02:47:53.664Z,57.18
2018-04-07T02:50:21.990Z,56.93
2018-04-07T02:52:51.210Z,57.54
2018-04-07T02:55:19.707Z,56.84
2018-04-07T02:57:48.705Z,56.58
2018-04-07T03:00:17.448Z,58.50
2018-04-07T03:02:45.896Z,59.00
2018-04-07T03:05:15.805Z,58.52
2018-04-07T03:07:44.068Z,57.66
2018-04-07T03:10:12.351Z,57.52
2018-04-07T03:12:41.150Z,58.25
2018-04-07T03:15:09.949Z,58.37
2018-04-07T03:17:39.048Z,58.50
2018-04-07T03:20:09.328Z,58.30
2018-04-07T03:22:37.616Z,57.72
2018-04-07T03:25:06.100Z,58.26
2018-04-07T03:27:34.383Z,58.44
2018-04-07T03:30:02.652Z,58.30
2018-04-07T03:32:30.958Z,58.88
2018-04-07T03:34:59.259Z,58.96
2018-04-07T03:37:28.298Z,58.42
2018-04-07T03:39:56.616Z,58.66
2018-04-07T03:42:25.702Z,58.71
2018-04-07T03:44:53.976Z,57.83
2018-04-07T03:47:22.274Z,58.69
2018-04-07T03:49:52.051Z,58.74
2018-04-07T03:52:20.625Z,58.22
2018-04-07T03:54:49.201Z,59.09
2018-04-07T03:57:17.468Z,59.69
2018-04-07T03:59:45.851Z,59.86
2018-04-07T04:02:14.225Z,59.88
2018-04-07T04:04:42.877Z,58.96
2018-04-07T04:07:12.012Z,59.26
2018-04-07T04:09:41.159Z,59.87
2018-04-07T04:12:10.001Z,59.60
2018-04-07T04:14:38.274Z,60.42
2018-04-07T04:17:07.204Z,59.92
2018-04-07T04:19:35.499Z,59.92
2018-04-07T04:22:03.755Z,59.85
2018-04-07T04:24:32.539Z,59.88
2018-04-07T04:27:00.903Z,59.88
2018-04-07T04:29:29.245Z,59.69
2018-04-07T04:31:58.378Z,60.71
2018-04-07T04:34:26.756Z,60.86
2018-04-07T04:36:55.039Z,61.38
2018-04-07T04:39:23.310Z,60.47
2018-04-07T04:41:51.975Z,60.83
2018-04-07T04:44:20.748Z,59.97
2018-04-07T04:46:49.784Z,60.34
2018-04-07T04:49:19.088Z,61.45
2018-04-07T04:51:47.631Z,60.59
2018-04-07T04:54:16.668Z,61.05
2018-04-07T04:56:46.394Z,61.09
2018-04-07T04:59:14.769Z,60.45
2018-04-07T05:01:43.042Z,59.19
2018-04-07T05:04:11.737Z,59.41
2018-04-07T05:06:40.560Z,59.38
2018-04-07T05:09:08.843Z,59.44
2018-04-07T05:11:37.882Z,59.16
2018-04-07T05:14:07.084Z,59.30
2018-04-07T05:16:35.368Z,58.61
2018-04-07T05:19:03.645Z,58.50
2018-04-07T05:21:32.752Z,60.25
2018-04-07T05:24:01.039Z,58.79
2018-04-07T05:26:29.392Z,58.77
2018-04-07T05:28:57.675Z,58.76
2018-04-07T05:31:26.068Z,59.29
2018-04-07T05:33:54.769Z,59.50
2018-04-07T05:36:23.064Z,58.72
2018-04-07T05:38:51.638Z,58.42
2018-04-07T05:41:20.512Z,58.01
2018-04-07T05:43:48.808Z,57.19
2018-04-07T05:46:17.138Z,58.35
2018-04-07T05:48:45.414Z,58.13
2018-04-07T05:51:13.664Z,57.13
2018-04-07T05:53:42.723Z,57.33
2018-04-07T05:56:11.285Z,57.18
2018-04-07T05:58:39.669Z,57.48
2018-04-07T06:01:08.738Z,57.30
2018-04-07T06:03:37.748Z,57.07
2018-04-07T06:06:06.147Z,56.13
2018-04-07T06:08:34.500Z,56.12
2018-04-07T06:11:02.899Z,56.69
2018-04-07T06:13:31.165Z,56.56
2018-04-07T06:15:59.693Z,55.87
2018-04-07T06:18:27.969Z,55.03
2018-04-07T06:20:56.276Z,55.44
2018-04-07T06:23:25.303Z,55.40
2018-04-07T06:25:54.590Z,55.98
2018-04-07T06:28:22.975Z,55.49
2018-04-07T06:30:52.071Z,53.87
2018-04-07T06:33:20.337Z,54.20
2018-04-07T06:35:48.730Z,52.54
2018-04-07T06:38:18.501Z,52.78
2018-04-07T06:40:46.789Z,53.72
2018-04-07T06:43:15.845Z,52.74
2018-04-07T06:45:44.408Z,53.48
2018-04-07T06:48:12.712Z,52.49
2018-04-07T06:50:41.158Z,50.97
2018-04-07T06:53:09.425Z,50.62
2018-04-07T06:55:37.683Z,51.58
2018-04-07T06:58:06.770Z,51.28
2018-04-07T07:00:35.398Z,50.14
2018-04-07T07:03:03.606Z,49.85
2018-04-07T07:05:31.885Z,48.50
2018-04-07T07:08:00.175Z,49.16
2018-04-07T07:10:29.114Z,48.25
2018-04-07T07:12:58.847Z,46.67
2018-04-07T07:15:27.135Z,47.63
2018-04-07T07:17:55.432Z,48.44
2018-04-07T07:20:23.716Z,47.42
2018-04-07T07:22:52.026Z,47.82
2018-04-07T07:25:21.248Z,47.79
2018-04-07T07:27:49.520Z,47.05
2018-04-07T07:30:17.816Z,48.25
2018-04-07T07:32:46.364Z,46.94
2018-04-07T07:35:14.648Z,46.70
2018-04-07T07:37:42.919Z,47.34
2018-04-07T07:40:12.035Z,47.35
2018-04-07T07:42:41.484Z,46.94
2018-04-07T07:45:10.904Z,46.95
2018-04-07T07:47:39.996Z,46.30
2018-04-07T07:50:08.286Z,47.20
2018-04-07T07:52:37.320Z,45.27
2018-04-07T07:55:05.636Z,46.14
2018-04-07T07:57:33.932Z,46.02
2018-04-07T08:00:02.973Z,46.02
2018-04-07T08:02:31.267Z,45.02
2018-04-07T08:04:59.547Z,42.40
2018-04-07T08:07:27.843Z,44.07
2018-04-07T08:09:56.188Z,43.40
2018-04-07T08:12:24.459Z,43.68
2018-04-07T08:14:52.759Z,43.74
2018-04-07T08:17:22.747Z,42.36
2018-04-07T08:19:51.056Z,42.91
2018-04-07T08:22:20.113Z,42.30
2018-04-07T08:24:48.416Z,43.33
2018-04-07T08:27:17.529Z,41.10
2018-04-07T08:29:45.880Z,40.75
2018-04-07T08:32:14.213Z,40.37
2018-04-07T08:34:43.160Z,41.83
2018-04-07T08:37:14.829Z,40.88
2018-04-07T08:39:39.796Z,41.02
2018-04-07T08:42:08.141Z,41.35
2018-04-07T08:44:36.467Z,40.40
2018-04-07T08:47:04.772Z,40.63
2018-04-07T08:49:33.067Z,40.21
2018-04-07T08:52:01.337Z,40.45
2018-04-07T08:54:31.003Z,40.45
2018-04-07T08:56:59.308Z,41.55
2018-04-07T08:59:28.308Z,40.20
2018-04-07T09:01:56.796Z,41.16
2018-04-07T09:04:25.313Z,39.78
2018-04-07T09:06:54.364Z,40.50
2018-04-07T09:09:22.656Z,40.22
2018-04-07T09:11:52.128Z,41.11
2018-04-07T09:14:20.593Z,40.64
2018-04-07T09:16:48.920Z,40.95
2018-04-07T09:19:18.055Z,41.15
2018-04-07T09:21:47.405Z,41.82
2018-04-07T09:24:15.806Z,41.71
2018-04-07T09:26:44.702Z,41.03
2018-04-07T09:29:13.176Z,40.97
2018-04-07T09:31:41.539Z,39.71
2018-04-07T09:34:11.387Z,40.45
2018-04-07T09:36:39.832Z,40.67
2018-04-07T09:39:08.117Z,40.63
2018-04-07T09:41:37.688Z,40.42
2018-04-07T09:44:06.082Z,39.32
2018-04-07T09:46:34.354Z,39.14
2018-04-07T09:49:02.624Z,39.85
2018-04-07T09:51:31.165Z,39.85
2018-04-07T09:53:59.504Z,38.91
2018-04-07T09:56:28.533Z,37.60
2018-04-07T09:58:56.861Z,38.79
2018-04-07T10:01:29.625Z,38.05
2018-04-07T10:03:58.684Z,38.62
2018-04-07T10:06:27.052Z,38.80
2018-04-07T10:08:55.319Z,38.76
2018-04-07T10:11:23.605Z,38.89
2018-04-07T10:13:52.080Z,38.79
2018-04-07T10:16:21.883Z,37.44
2018-04-07T10:18:50.152Z,38.11
2018-04-07T10:21:19.480Z,37.71
2018-04-07T10:23:48.384Z,38.49
2018-04-07T10:26:16.664Z,37.62
2018-04-07T10:28:45.671Z,39.70
2018-04-07T10:31:14.678Z,37.17
2018-04-07T10:33:43.679Z,37.88
2018-04-07T10:36:12.772Z,37.30
2018-04-07T10:38:41.939Z,37.00
2018-04-07T10:41:10.216Z,35.77
2018-04-07T10:43:38.504Z,35.51
2018-04-07T10:46:07.231Z,35.03
2018-04-07T10:48:36.357Z,35.74
2018-04-07T10:51:04.661Z,34.70
2018-04-07T10:53:32.931Z,34.54
2018-04-07T10:56:01.269Z,34.37
2018-04-07T10:58:30.825Z,34.49
2018-04-07T11:00:59.122Z,35.67
2018-04-07T11:03:28.183Z,34.83
2018-04-07T11:05:57.096Z,36.48
2018-04-07T11:08:25.382Z,36.54
2018-04-07T11:10:54.250Z,36.24
2018-04-07T11:13:23.187Z,35.10
2018-04-07T11:15:53.790Z,35.65
2018-04-07T11:18:22.088Z,34.72
2018-04-07T11:20:51.131Z,34.97
2018-04-07T11:23:20.227Z,35.76
2018-04-07T11:25:48.627Z,35.79
2018-04-07T11:28:17.307Z,35.06
2018-04-07T11:30:46.513Z,36.78
2018-04-07T11:33:14.787Z,35.13
2018-04-07T11:35:47.178Z,35.06
2018-04-07T11:38:16.160Z,35.57
2018-04-07T11:40:44.901Z,36.00
2018-04-07T11:43:14.915Z,35.72
2018-04-07T11:45:44.157Z,35.44
2018-04-07T11:48:12.904Z,35.36
2018-04-07T11:50:41.961Z,34.57
2018-04-07T11:53:10.266Z,35.55
2018-04-07T11:55:39.348Z,35.83
2018-04-07T11:58:08.563Z,35.16
2018-04-07T12:00:37.381Z,35.06
2018-04-07T12:03:05.667Z,35.18
2018-04-07T12:05:34.324Z,35.56
2018-04-07T12:08:04.152Z,34.59
2018-04-07T12:10:34.900Z,34.07
2018-04-07T12:13:04.405Z,34.40
2018-04-07T12:15:32.700Z,34.56
2018-04-07T12:18:00.995Z,33.82
2018-04-07T12:20:29.590Z,33.75
2018-04-07T12:22:58.780Z,33.66
2018-04-07T12:25:27.160Z,34.20
2018-04-07T12:27:56.336Z,34.83
2018-04-07T12:30:24.623Z,33.96
2018-04-07T12:32:52.920Z,34.45
2018-04-07T12:35:22.199Z,32.56
2018-04-07T12:37:50.476Z,30.60
2018-04-07T12:40:18.784Z,28.52
2018-04-07T12:42:47.088Z,28.32
2018-04-07T12:45:15.713Z,29.17
2018-04-07T12:47:44.016Z,27.28
2018-04-07T12:50:12.736Z,25.50
2018-04-07T12:52:41.802Z,26.04
2018-04-07T12:55:10.087Z,24.19
2018-04-07T12:57:38.400Z,23.40
2018-04-07T13:00:07.548Z,21.32
2018-04-07T13:02:35.856Z,21.84
2018-04-07T13:05:04.134Z,21.73
2018-04-07T13:07:33.491Z,20.51
2018-04-07T13:10:02.568Z,20.50
2018-04-07T13:12:31.497Z,19.91
2018-04-07T13:14:59.864Z,19.08
2018-04-07T13:17:28.999Z,18.80
2018-04-07T13:19:57.644Z,18.32
2018-04-07T13:22:26.133Z,18.32
2018-04-07T13:24:54.512Z,19.24
2018-04-07T13:27:22.800Z,18.71
2018-04-07T13:29:51.072Z,19.62
2018-04-07T13:32:19.373Z,19.21
2018-04-07T13:34:47.650Z,19.22
2018-04-07T13:37:15.928Z,19.17
2018-04-07T13:39:44.499Z,18.49
2018-04-07T13:42:12.824Z,18.85
2018-04-07T13:44:41.864Z,19.27
2018-04-07T13:47:10.144Z,19.62
2018-04-07T13:49:38.437Z,18.95
2018-04-07T13:52:06.728Z,19.39
2018-04-07T13:54:35.400Z,19.62
2018-04-07T13:57:03.817Z,19.50
2018-04-07T13:59:32.860Z,19.29
2018-04-07T14:02:01.252Z,19.37
2018-04-07T14:04:29.630Z,19.78
2018-04-07T14:06:58.630Z,19.43
2018-04-07T14:09:27.065Z,18.85
2018-04-07T14:11:55.337Z,18.81
2018-04-07T14:14:24.396Z,19.50
2018-04-07T14:16:52.761Z,19.05
2018-04-07T14:19:20.986Z,18.14
2018-04-07T14:21:50.323Z,17.77
2018-04-07T14:24:18.608Z,18.85
2018-04-07T14:26:46.893Z,18.05
2018-04-07T14:29:15.247Z,18.38
2018-04-07T14:31:43.520Z,19.22
2018-04-07T14:34:11.795Z,17.92
2018-04-07T14:36:40.088Z,18.24
2018-04-07T14:39:08.368Z,18.69
2018-04-07T14:41:36.906Z,17.75
2018-04-07T14:44:05.953Z,18.44
2018-04-07T14:46:34.236Z,17.85
2018-04-07T14:49:02.603Z,17.90
2018-04-07T14:51:30.970Z,18.99
2018-04-07T14:53:59.249Z,19.04
2018-04-07T14:56:27.548Z,18.25
2018-04-07T14:58:55.824Z,19.40
2018-04-07T15:01:24.099Z,19.19
2018-04-07T15:03:52.429Z,19.59
2018-04-07T15:06:21.472Z,20.62
2018-04-07T15:08:49.778Z,20.57
2018-04-07T15:11:18.061Z,20.45
2018-04-07T15:13:46.339Z,19.96
2018-04-07T15:16:14.676Z,20.63
2018-04-07T15:18:42.956Z,21.24
2018-04-07T15:21:12.045Z,21.14
2018-04-07T15:23:40.347Z,20.46
2018-04-07T15:26:09.576Z,19.66
2018-04-07T15:28:38.780Z,19.72
2018-04-07T15:31:07.180Z,18.69
2018-04-07T15:33:36.232Z,19.96
2018-04-07T15:36:04.516Z,20.17
2018-04-07T15:38:33.119Z,18.14
2018-04-07T15:41:01.443Z,19.47
2018-04-07T15:43:29.729Z,19.45
2018-04-07T15:45:58.005Z,19.99
2018-04-07T15:48:26.516Z,21.03
2018-04-07T15:50:56.272Z,19.94
2018-04-07T15:53:25.299Z,20.06
2018-04-07T15:55:53.728Z,19.84
2018-04-07T15:58:22.788Z,19.84
2018-04-07T16:00:51.060Z,20.76
2018-04-07T16:03:19.366Z,21.04
2018-04-07T16:05:48.038Z,20.21
2018-04-07T16:08:16.327Z,20.74
2018-04-07T16:10:44.616Z,20.75
2018-04-07T16:13:12.906Z,20.98
2018-04-07T16:15:42.008Z,21.36
2018-04-07T16:18:11.875Z,21.23
2018-04-07T16:20:40.148Z,22.26
2018-04-07T16:23:08.465Z,20.56
2018-04-07T16:25:36.749Z,19.71
2018-04-07T16:28:05.830Z,20.52
2018-04-07T16:30:34.116Z,20.31
2018-04-07T16:33:02.412Z,21.37
2018-04-07T16:35:32.224Z,21.78
2018-04-07T16:38:02.283Z,22.05
2018-04-07T16:40:30.564Z,23.18
2018-04-07T16:42:58.876Z,24.39
2018-04-07T16:45:27.224Z,24.54
2018-04-07T16:47:55.488Z,24.00
2018-04-07T16:50:23.803Z,24.77
2018-04-07T16:52:52.104Z,23.99
2018-04-07T16:55:21.144Z,24.61
2018-04-07T16:57:49.484Z,25.59
2018-04-07T17:00:18.546Z,25.25
2018-04-07T17:02:46.840Z,26.50
2018-04-07T17:05:15.982Z,27.82
2018-04-07T17:07:45.050Z,29.35
2018-04-07T17:10:14.089Z,30.00
2018-04-07T17:12:43.122Z,31.00
2018-04-07T17:15:11.378Z,31.88
2018-04-07T17:17:39.648Z,32.37
2018-04-07T17:20:07.943Z,33.87
2018-04-07T17:22:36.971Z,34.49
2018-04-07T17:25:06.060Z,34.61
2018-04-07T17:27:35.159Z,33.85
2018-04-07T17:30:03.431Z,35.58
2018-04-07T17:32:32.506Z,34.47
2018-04-07T17:35:01.800Z,34.74
2018-04-07T17:37:31.026Z,35.42
2018-04-07T17:39:59.304Z,36.04
2018-04-07T17:42:27.624Z,37.80
2018-04-07T17:44:55.920Z,37.86
2018-04-07T17:47:24.237Z,38.03
2018-04-07T17:49:53.774Z,39.21
2018-04-07T17:52:22.725Z,39.19
2018-04-07T17:54:51.037Z,39.06
2018-04-07T17:57:20.871Z,40.38
2018-04-07T17:59:49.140Z,40.53
2018-04-07T18:02:17.530Z,41.30
2018-04-07T18:04:46.340Z,41.25
2018-04-07T18:07:16.057Z,41.43
2018-04-07T18:09:45.957Z,41.58
2018-04-07T18:12:14.239Z,40.29
2018-04-07T18:14:42.918Z,40.36
2018-04-07T18:17:11.212Z,40.42
2018-04-07T18:19:40.572Z,41.41
2018-04-07T18:22:09.609Z,41.69
2018-04-07T18:24:38.635Z,43.27
2018-04-07T18:27:06.995Z,42.30
2018-04-07T18:29:35.285Z,42.57
2018-04-07T18:32:03.608Z,43.07
2018-04-07T18:34:31.873Z,41.77
2018-04-07T18:37:01.485Z,42.51
2018-04-07T18:39:30.836Z,43.32
2018-04-07T18:41:59.146Z,43.96
2018-04-07T18:44:27.431Z,43.91
2018-04-07T18:46:57.416Z,44.37
2018-04-07T18:49:25.717Z,44.50
2018-04-07T18:51:54.721Z,45.08
2018-04-07T18:54:23.808Z,45.43
2018-04-07T18:56:52.930Z,46.79
2018-04-07T18:59:22.044Z,44.63
2018-04-07T19:01:50.350Z,45.67
2018-04-07T19:04:19.356Z,44.23
2018-04-07T19:06:49.208Z,44.85
2018-04-07T19:09:18.306Z,44.51
2018-04-07T19:11:47.639Z,43.76
2018-04-07T19:14:15.932Z,44.30
2018-04-07T19:16:44.291Z,44.99
2018-04-07T19:19:13.358Z,45.30
2018-04-07T19:21:42.753Z,43.90
2018-04-07T19:24:11.812Z,43.31
2018-04-07T19:26:40.097Z,43.05
2018-04-07T19:29:09.209Z,42.82
2018-04-07T19:31:37.532Z,42.67
2018-04-07T19:34:05.810Z,42.20
2018-04-07T19:36:34.619Z,42.65
2018-04-07T19:39:03.199Z,43.08
2018-04-07T19:41:31.504Z,45.29
2018-04-07T19:44:00.688Z,45.66
2018-04-07T19:46:29.845Z,47.12
2018-04-07T19:48:58.888Z,48.61
2018-04-07T19:51:27.206Z,48.14
2018-04-07T19:53:57.703Z,48.75
2018-04-07T19:56:26.001Z,50.13
2018-04-07T19:58:54.293Z,50.42
2018-04-07T20:01:24.079Z,51.27
2018-04-07T20:03:52.384Z,50.72
2018-04-07T20:06:22.004Z,49.38
2018-04-07T20:08:51.612Z,49.68
2018-04-07T20:11:20.746Z,49.74
2018-04-07T20:13:49.065Z,51.08
2018-04-07T20:16:17.888Z,51.30
2018-04-07T20:18:46.837Z,50.99
2018-04-07T20:21:15.119Z,52.82
2018-04-07T20:23:43.511Z,52.13
2018-04-07T20:26:11.797Z,53.13
2018-04-07T20:28:42.578Z,52.04
2018-04-07T20:31:11.583Z,52.35
2018-04-07T20:33:40.667Z,52.01
2018-04-07T20:36:10.034Z,52.30
2018-04-07T20:38:39.458Z,51.15
2018-04-07T20:41:07.761Z,52.26
2018-04-07T20:43:36.078Z,52.08
2018-04-07T20:46:04.416Z,52.58
2018-04-07T20:48:32.803Z,52.17
2018-04-07T20:51:01.110Z,52.40
2018-04-07T20:53:29.530Z,52.90
2018-04-07T20:55:57.930Z,53.23
2018-04-07T20:58:27.363Z,52.11
2018-04-07T21:00:55.657Z,51.20
2018-04-07T21:03:23.952Z,50.83
2018-04-07T21:05:53.363Z,49.42
2018-04-07T21:08:22.391Z,49.44
2018-04-07T21:10:52.738Z,49.15
2018-04-07T21:13:21.940Z,52.06
2018-04-07T21:15:51.453Z,53.38
2018-04-07T21:18:20.521Z,53.26
2018-04-07T21:20:50.195Z,54.09
2018-04-07T21:23:19.403Z,54.54
2018-04-07T21:25:48.926Z,55.59
2018-04-07T21:28:17.204Z,55.92
2018-04-07T21:30:45.509Z,54.59
2018-04-07T21:33:14.201Z,55.46
2018-04-07T21:35:44.523Z,55.05
2018-04-07T21:38:12.903Z,55.60
2018-04-07T21:40:41.979Z,54.80
2018-04-07T21:43:10.278Z,55.71
2018-04-07T21:45:39.367Z,54.18
2018-04-07T21:48:07.659Z,54.81
2018-04-07T21:50:36.632Z,54.33
2018-04-07T21:53:05.950Z,54.47
2018-04-07T21:55:35.101Z,55.33
2018-04-07T21:58:03.498Z,56.37
2018-04-07T22:00:33.309Z,57.02
2018-04-07T22:03:01.900Z,58.35
2018-04-07T22:05:32.004Z,59.27
2018-04-07T22:08:01.196Z,59.78
2018-04-07T22:10:30.273Z,59.58
2018-04-07T22:12:58.561Z,59.91
2018-04-07T22:15:26.984Z,59.79
2018-04-07T22:17:56.059Z,59.46
2018-04-07T22:20:24.342Z,56.60
2018-04-07T22:22:53.440Z,58.61
2018-04-07T22:25:21.718Z,58.67
2018-04-07T22:27:50.005Z,59.01
2018-04-07T22:30:18.336Z,59.22
2018-04-07T22:32:46.912Z,58.71
2018-04-07T22:35:15.197Z,58.66
2018-04-07T22:37:45.052Z,58.73
2018-04-07T22:40:13.337Z,58.87
2018-04-07T22:42:43.216Z,57.91
2018-04-07T22:45:12.641Z,58.68
2018-04-07T22:47:41.178Z,59.35
2018-04-07T22:50:10.557Z,57.41
2018-04-07T22:52:38.888Z,58.15
2018-04-07T22:55:08.852Z,57.87
2018-04-07T22:57:37.134Z,57.66
2018-04-07T23:00:05.425Z,58.05
2018-04-07T23:02:33.739Z,57.02
2018-04-07T23:05:02.784Z,56.53
2018-04-07T23:07:31.071Z,57.35
2018-04-07T23:09:59.437Z,58.22
2018-04-07T23:12:27.720Z,58.10
2018-04-07T23:14:56.840Z,58.55
2018-04-07T23:17:25.136Z,56.88
2018-04-07T23:19:55.086Z,56.61
2018-04-07T23:22:23.375Z,55.90
2018-04-07T23:24:52.571Z,56.20
2018-04-07T23:27:21.691Z,57.07
2018-04-07T23:29:50.403Z,56.60
2018-04-07T23:32:18.762Z,56.21
2018-04-07T23:34:47.251Z,56.14
2018-04-07T23:37:15.548Z,56.32
2018-04-07T23:39:44.664Z,56.65
2018-04-07T23:42:13.749Z,56.28
2018-04-07T23:44:43.001Z,56.29
2018-04-07T23:47:11.386Z,56.42
2018-04-07T23:49:39.846Z,56.06
2018-04-07T23:52:08.146Z,56.78
2018-04-07T23:54:36.409Z,56.35
2018-04-07T23:57:04.900Z,56.89
2018-04-07T23:59:33.925Z,56.51
